Time;durP1;ratioP1;P1;durP2;ratioP2;P2;SDS_P1;SDS_P2;PMS_P1;PMS_P2;Temp;Humidity;BMP_temperature;BMP_pressure;BME280_temperature;BME280_humidity;BME280_pressure;Samples;Min_cycle;Max_cycle;Signal;HPM_P1;HPM_P2
2021/07/20 08:21:43;;;;;;;7.95;5.07;;;;;;;;;;5108510;27;20360;-81
2021/07/20 08:24:08;;;;;;;11.95;4.93;;;;;;;;;;5099685;28;20043;-82
2021/07/20 08:26:39;;;;;;;9.30;5.35;;;;;;;;;;5087248;28;20024;-80
2021/07/20 08:29:06;;;;;;;8.23;4.88;;;;;;;;;;5082089;28;20018;-81
2021/07/20 08:31:52;;;;;;;6.28;4.40;;;;;;;;;;5084673;28;20028;-81
2021/07/20 08:34:18;;;;;;;6.78;4.28;;;;;;;;;;5085713;28;20134;-80
2021/07/20 08:36:44;;;;;;;8.45;4.55;;;;;;;;;;5101397;28;20043;-80
2021/07/20 08:39:11;;;;;;;8.75;4.30;;;;;;;;;;5107386;28;20032;-81
2021/07/20 08:41:51;;;;;;;7.47;4.50;;;;;;;;;;5106754;28;20490;-80
2021/07/20 08:44:23;;;;;;;6.32;3.97;;;;;;;;;;5106973;28;20128;-80
2021/07/20 08:46:48;;;;;;;8.35;4.30;;;;;;;;;;5107096;28;20402;-81
2021/07/20 08:49:33;;;;;;;9.55;4.43;;;;;;;;;;5105715;28;20036;-81
2021/07/20 08:52:03;;;;;;;6.28;4.00;;;;;;;;;;5107249;28;20023;-81
2021/07/20 08:54:34;;;;;;;8.70;4.47;;;;;;;;;;5107208;28;20032;-81
2021/07/20 08:57:00;;;;;;;5.95;3.95;;;;;;;;;;5107466;28;20073;-81
2021/07/20 08:59:46;;;;;;;6.90;4.03;;;;;;;;;;5107120;28;20115;-80
2021/07/20 09:02:23;;;;;;;8.60;4.00;;;;;;;;;;5094990;28;20043;-81
2021/07/20 09:04:56;;;;;;;6.55;4.22;;;;;;;;;;5106724;28;20107;-81
2021/07/20 09:07:23;;;;;;;8.80;4.30;;;;;;;;;;5106796;28;20028;-82
2021/07/20 09:09:48;;;;;;;7.68;4.13;;;;;;;;;;5106752;28;20032;-81
2021/07/20 09:12:17;;;;;;;8.02;4.95;;;;;;;;;;5105981;28;20517;-81
2021/07/20 09:14:49;;;;;;;8.20;4.88;;;;;;;;;;5106094;28;20032;-84
2021/07/20 09:17:33;;;;;;;10.68;5.05;;;;;;;;;;5086205;28;20043;-82
2021/07/20 09:20:01;;;;;;;9.77;4.85;;;;;;;;;;5085816;28;20049;-81
2021/07/20 09:22:37;;;;;;;12.23;5.03;;;;;;;;;;5085577;28;20115;-82
2021/07/20 09:25:08;;;;;;;8.00;4.05;;;;;;;;;;5086262;28;20036;-83
2021/07/20 09:27:39;;;;;;;8.40;4.20;;;;;;;;;;5091182;28;20111;-82
2021/07/20 09:30:08;;;;;;;5.57;3.75;;;;;;;;;;5105296;28;20028;-81
2021/07/20 09:32:41;;;;;;;8.10;4.15;;;;;;;;;;5094862;28;20032;-81
2021/07/20 09:35:17;;;;;;;6.93;4.13;;;;;;;;;;5092442;28;20110;-81
2021/07/20 09:37:47;;;;;;;6.93;4.30;;;;;;;;;;5092500;28;20032;-82
2021/07/20 09:40:21;;;;;;;10.23;4.47;;;;;;;;;;5091476;28;20028;-82
2021/07/20 09:42:49;;;;;;;11.15;4.30;;;;;;;;;;5092592;28;20028;-81
2021/07/20 09:45:19;;;;;;;6.40;3.88;;;;;;;;;;5092786;28;20081;-81
2021/07/20 09:47:47;;;;;;;7.13;4.10;;;;;;;;;;5092706;28;20057;-81
2021/07/20 09:50:15;;;;;;;8.48;4.70;;;;;;;;;;5092782;28;20024;-82
2021/07/20 09:52:43;;;;;;;8.60;4.07;;;;;;;;;;5090973;28;20028;-82
2021/07/20 09:55:27;;;;;;;8.75;4.30;;;;;;;;;;5092457;28;20146;-81
2021/07/20 09:58:00;;;;;;;7.60;4.38;;;;;;;;;;5092620;28;20028;-81
2021/07/20 10:00:32;;;;;;;6.00;3.92;;;;;;;;;;5073232;28;20028;-81
2021/07/20 10:03:28;;;;;;;7.30;3.97;;;;;;;;;;5072605;28;20101;-83
2021/07/20 10:06:07;;;;;;;7.90;4.72;;;;;;;;;;5091970;28;20032;-81
2021/07/20 10:08:51;;;;;;;5.35;4.00;;;;;;;;;;5092582;28;20111;-81
2021/07/20 10:11:19;;;;;;;7.38;4.28;;;;;;;;;;5091869;28;20047;-81
2021/07/20 10:13:59;;;;;;;10.95;3.67;;;;;;;;;;5092470;28;20056;-81
2021/07/20 10:16:43;;;;;;;11.57;4.28;;;;;;;;;;5092031;28;20036;-82
2021/07/20 10:19:11;;;;;;;5.80;3.85;;;;;;;;;;5092064;28;20498;-81
2021/07/20 10:21:38;;;;;;;8.82;4.00;;;;;;;;;;5091856;28;20504;-81
2021/07/20 10:24:16;;;;;;;7.50;3.53;;;;;;;;;;5091784;28;20406;-81
2021/07/20 10:26:45;;;;;;;9.02;4.32;;;;;;;;;;5092737;28;20035;-81
2021/07/20 10:29:14;;;;;;;5.22;3.55;;;;;;;;;;5092142;28;20036;-81
2021/07/20 10:31:48;;;;;;;6.78;4.10;;;;;;;;;;5091726;28;20020;-81
2021/07/20 10:34:17;;;;;;;7.38;3.50;;;;;;;;;;5091807;28;20111;-80
2021/07/20 10:36:48;;;;;;;11.23;4.60;;;;;;;;;;5091584;28;20032;-80
2021/07/20 10:39:17;;;;;;;8.48;4.30;;;;;;;;;;5091997;28;20043;-81
2021/07/20 10:41:52;;;;;;;7.10;4.28;;;;;;;;;;5092017;28;20044;-81
2021/07/20 10:44:41;;;;;;;7.57;3.33;;;;;;;;;;5091411;28;20040;-82
2021/07/20 10:47:07;;;;;;;9.32;4.03;;;;;;;;;;5091493;28;20024;-80
2021/07/20 10:49:32;;;;;;;6.93;3.63;;;;;;;;;;5091965;28;20038;-81
2021/07/20 10:52:09;;;;;;;12.67;4.00;;;;;;;;;;5092379;28;20028;-81
2021/07/20 10:54:37;;;;;;;5.15;3.78;;;;;;;;;;5091636;28;20024;-80
2021/07/20 10:57:04;;;;;;;6.20;3.95;;;;;;;;;;5091634;28;20028;-81
2021/07/20 10:59:32;;;;;;;8.95;3.90;;;;;;;;;;5091786;28;20372;-80
2021/07/20 11:02:00;;;;;;;7.82;3.47;;;;;;;;;;5092117;28;20093;-80
2021/07/20 11:04:55;;;;;;;7.78;3.80;;;;;;;;;;5091557;28;20028;-80
2021/07/20 11:07:28;;;;;;;6.63;3.88;;;;;;;;;;5073180;28;20044;-79
2021/07/20 11:09:54;;;;;;;6.22;3.10;;;;;;;;;;5091369;28;20036;-79
2021/07/20 11:12:24;;;;;;;4.97;3.33;;;;;;;;;;5091141;28;20357;-80
2021/07/20 11:14:50;;;;;;;6.43;3.28;;;;;;;;;;5091378;28;20024;-80
2021/07/20 11:17:17;;;;;;;7.15;3.20;;;;;;;;;;5091009;28;20111;-80
2021/07/20 11:19:44;;;;;;;8.07;3.40;;;;;;;;;;5091102;28;20048;-80
2021/07/20 11:22:10;;;;;;;6.40;2.55;;;;;;;;;;5091815;28;20024;-80
2021/07/20 11:24:35;;;;;;;7.07;3.03;;;;;;;;;;5091200;28;20031;-79
2021/07/20 11:27:01;;;;;;;6.75;3.33;;;;;;;;;;5091073;28;20103;-79
2021/07/20 11:29:30;;;;;;;5.43;3.00;;;;;;;;;;5091266;28;20028;-79
2021/07/20 11:31:55;;;;;;;7.93;3.70;;;;;;;;;;5090926;28;20035;-80
2021/07/20 11:34:23;;;;;;;11.00;4.65;;;;;;;;;;5091041;28;20015;-80
2021/07/20 11:36:50;;;;;;;8.80;4.00;;;;;;;;;;5091190;28;20024;-83
2021/07/20 11:39:19;;;;;;;9.32;4.00;;;;;;;;;;5091382;28;20036;-79
2021/07/20 11:42:03;;;;;;;7.35;3.03;;;;;;;;;;5090672;28;20039;-79
2021/07/20 11:44:29;;;;;;;5.90;3.53;;;;;;;;;;5090024;28;20028;-79
2021/07/20 11:46:54;;;;;;;6.43;4.55;;;;;;;;;;5090460;28;20039;-82
2021/07/20 11:49:34;;;;;;;8.15;4.55;;;;;;;;;;5090821;28;20035;-79
2021/07/20 11:52:05;;;;;;;11.07;4.55;;;;;;;;;;5090232;28;20028;-79
2021/07/20 11:54:49;;;;;;;9.45;4.88;;;;;;;;;;5089884;28;20488;-80
2021/07/20 11:57:33;;;;;;;8.88;4.30;;;;;;;;;;5089780;28;20043;-79
2021/07/20 12:00:06;;;;;;;10.80;4.55;;;;;;;;;;5090679;28;20105;-79
2021/07/20 12:02:43;;;;;;;7.82;4.95;;;;;;;;;;5090514;28;20388;-81
2021/07/20 12:05:21;;;;;;;7.25;4.90;;;;;;;;;;5090057;28;20032;-80
2021/07/20 12:07:52;;;;;;;12.27;5.40;;;;;;;;;;5089557;28;20373;-80
2021/07/20 12:10:36;;;;;;;16.55;5.55;;;;;;;;;;5090252;28;20051;-81
2021/07/20 12:13:05;;;;;;;8.15;4.70;;;;;;;;;;5088940;28;20024;-81
2021/07/20 12:15:33;;;;;;;12.32;4.75;;;;;;;;;;5089557;28;20040;-79
2021/07/20 12:18:00;;;;;;;10.57;4.93;;;;;;;;;;5089314;28;20099;-80
2021/07/20 12:20:25;;;;;;;9.75;4.53;;;;;;;;;;5080927;28;20047;-81
2021/07/20 12:22:51;;;;;;;6.90;4.78;;;;;;;;;;5087452;28;20396;-80
2021/07/20 12:25:17;;;;;;;7.70;4.65;;;;;;;;;;5089382;28;20024;-79
2021/07/20 12:27:44;;;;;;;9.75;4.25;;;;;;;;;;5089767;28;20491;-80
2021/07/20 12:30:11;;;;;;;10.40;4.32;;;;;;;;;;5089597;28;20099;-79
2021/07/20 12:32:37;;;;;;;10.05;4.45;;;;;;;;;;5088269;28;20403;-81
2021/07/20 12:35:03;;;;;;;12.70;4.57;;;;;;;;;;5090008;28;20532;-80
2021/07/20 12:37:28;;;;;;;9.93;4.28;;;;;;;;;;5089786;28;20111;-80
2021/07/20 12:39:57;;;;;;;8.40;4.22;;;;;;;;;;5089531;28;20028;-80
2021/07/20 12:42:23;;;;;;;10.38;4.22;;;;;;;;;;5088962;28;20488;-80
2021/07/20 12:45:07;;;;;;;6.88;4.50;;;;;;;;;;5090267;28;20056;-80
2021/07/20 12:47:39;;;;;;;9.13;4.63;;;;;;;;;;5089903;28;20078;-79
2021/07/20 12:50:05;;;;;;;10.15;3.95;;;;;;;;;;5089236;28;20549;-80
2021/07/20 12:52:35;;;;;;;12.48;3.95;;;;;;;;;;5089527;28;20482;-79
2021/07/20 12:55:00;;;;;;;5.65;3.83;;;;;;;;;;5089913;28;20028;-80
2021/07/20 12:57:26;;;;;;;9.98;4.00;;;;;;;;;;5090007;28;20035;-79
2021/07/20 12:59:53;;;;;;;8.30;3.70;;;;;;;;;;5089683;28;20361;-80
2021/07/20 13:02:19;;;;;;;9.05;4.55;;;;;;;;;;5089205;28;20031;-80
2021/07/20 13:04:48;;;;;;;6.63;3.33;;;;;;;;;;5089622;28;20032;-80
2021/07/20 13:07:15;;;;;;;6.43;4.00;;;;;;;;;;5091298;28;20016;-79
2021/07/20 13:09:42;;;;;;;7.57;3.63;;;;;;;;;;5093063;28;20028;-81
2021/07/20 13:12:07;;;;;;;8.23;3.78;;;;;;;;;;5093245;28;20445;-79
2021/07/20 13:14:35;;;;;;;6.18;3.50;;;;;;;;;;5093634;28;20539;-79
2021/07/20 13:17:00;;;;;;;10.40;3.90;;;;;;;;;;5093507;28;20028;-79
2021/07/20 13:19:25;;;;;;;8.73;3.83;;;;;;;;;;5092137;28;20255;-80
2021/07/20 13:21:51;;;;;;;9.60;4.22;;;;;;;;;;5092741;28;20027;-79
2021/07/20 13:24:17;;;;;;;5.60;3.55;;;;;;;;;;5092793;28;20039;-79
2021/07/20 13:26:42;;;;;;;11.07;4.70;;;;;;;;;;5092751;28;20108;-79
2021/07/20 13:29:09;;;;;;;10.23;4.32;;;;;;;;;;5092679;28;20016;-79
2021/07/20 13:31:39;;;;;;;13.60;4.72;;;;;;;;;;5091047;28;20035;-79
2021/07/20 13:34:05;;;;;;;8.45;4.30;;;;;;;;;;5092246;28;20475;-80
2021/07/20 13:36:32;;;;;;;13.13;4.25;;;;;;;;;;5089807;28;20099;-79
2021/07/20 13:38:59;;;;;;;10.00;5.13;;;;;;;;;;5092418;28;20376;-80
2021/07/20 13:41:24;;;;;;;10.68;4.68;;;;;;;;;;5092661;28;20048;-80
2021/07/20 13:43:51;;;;;;;10.15;4.70;;;;;;;;;;5092946;28;20031;-80
2021/07/20 13:46:17;;;;;;;14.02;4.85;;;;;;;;;;5093136;28;20081;-79
2021/07/20 13:48:44;;;;;;;9.50;4.20;;;;;;;;;;5092433;28;20032;-79
2021/07/20 13:51:10;;;;;;;9.82;3.85;;;;;;;;;;5092487;28;20027;-79
2021/07/20 13:53:36;;;;;;;8.13;4.43;;;;;;;;;;5092506;28;20027;-80
2021/07/20 13:56:20;;;;;;;9.50;4.30;;;;;;;;;;5092173;28;20032;-80
2021/07/20 13:58:46;;;;;;;8.25;4.35;;;;;;;;;;5092152;28;20839;-79
2021/07/20 14:01:12;;;;;;;8.23;3.90;;;;;;;;;;5088752;28;20479;-79
2021/07/20 14:03:38;;;;;;;13.68;4.70;;;;;;;;;;5091774;28;20070;-80
2021/07/20 14:06:04;;;;;;;5.53;3.88;;;;;;;;;;5091771;28;20036;-79
2021/07/20 14:08:30;;;;;;;8.45;3.92;;;;;;;;;;5091351;28;20032;-80
2021/07/20 14:10:57;;;;;;;11.23;4.22;;;;;;;;;;5092431;28;20027;-79
2021/07/20 14:13:24;;;;;;;7.75;4.10;;;;;;;;;;5092058;28;20043;-80
2021/07/20 14:15:49;;;;;;;9.05;5.18;;;;;;;;;;5091277;28;20035;-79
2021/07/20 14:18:15;;;;;;;6.93;4.35;;;;;;;;;;5090995;28;20016;-80
2021/07/20 14:20:40;;;;;;;7.65;4.30;;;;;;;;;;5091548;28;20048;-79
2021/07/20 14:23:05;;;;;;;9.15;4.43;;;;;;;;;;5089922;28;20036;-80
2021/07/20 14:25:43;;;;;;;11.77;5.13;;;;;;;;;;5091899;28;20035;-80
2021/07/20 14:28:09;;;;;;;8.27;4.78;;;;;;;;;;5092417;28;20070;-79
2021/07/20 14:30:34;;;;;;;10.90;4.78;;;;;;;;;;5091588;28;20495;-79
2021/07/20 14:33:01;;;;;;;8.57;5.03;;;;;;;;;;5090263;28;20372;-79
2021/07/20 14:35:36;;;;;;;12.60;5.20;;;;;;;;;;5091599;28;20081;-79
2021/07/20 14:38:01;;;;;;;;;;;;;;;;;;5092119;28;20032;-80
2021/07/20 14:40:31;;;;;;;12.73;4.85;;;;;;;;;;5091376;28;19912;-80
2021/07/20 14:42:59;;;;;;;7.25;5.53;;;;;;;;;;5091278;28;20035;-79
2021/07/20 14:45:25;;;;;;;12.77;4.75;;;;;;;;;;5091783;28;20024;-80
2021/07/20 14:47:51;;;;;;;10.63;5.07;;;;;;;;;;5090979;28;20472;-79
2021/07/20 14:50:16;;;;;;;11.32;5.03;;;;;;;;;;5091950;28;20073;-80
2021/07/20 14:52:41;;;;;;;9.45;5.55;;;;;;;;;;5091553;28;20123;-79
2021/07/20 14:55:13;;;;;;;8.67;4.67;;;;;;;;;;5091119;28;20360;-79
2021/07/20 14:58:02;;;;;;;10.98;4.45;;;;;;;;;;5091316;28;20269;-80
2021/07/20 15:00:45;;;;;;;8.93;4.75;;;;;;;;;;5079415;28;20476;-79
2021/07/20 15:03:30;;;;;;;9.70;4.88;;;;;;;;;;5091443;28;20036;-79
2021/07/20 15:05:56;;;;;;;;;;;;;;;;;;5092204;28;20146;-80
2021/07/20 15:08:25;;;;;;;7.90;4.47;;;;;;;;;;5091009;28;19995;-79
2021/07/20 15:10:56;;;;;;;5.97;3.92;;;;;;;;;;5091007;28;20158;-79
2021/07/20 15:13:22;;;;;;;8.05;4.40;;;;;;;;;;5088096;28;20198;-81
2021/07/20 15:15:56;;;;;;;9.05;4.22;;;;;;;;;;5089969;28;20162;-80
2021/07/20 15:18:22;;;;;;;11.75;4.32;;;;;;;;;;5089472;28;20420;-80
2021/07/20 15:20:47;;;;;;;9.68;4.20;;;;;;;;;;5090400;28;20088;-80
2021/07/20 15:23:12;;;;;;;8.55;4.45;;;;;;;;;;5087801;28;20024;-80
2021/07/20 15:25:38;;;;;;;8.30;3.70;;;;;;;;;;5089663;28;20466;-82
2021/07/20 15:28:04;;;;;;;7.10;4.38;;;;;;;;;;5089088;28;20064;-81
2021/07/20 15:30:31;;;;;;;6.30;3.53;;;;;;;;;;5089618;28;20873;-81
2021/07/20 15:32:57;;;;;;;8.75;4.18;;;;;;;;;;5090789;28;20023;-80
2021/07/20 15:35:23;;;;;;;9.73;4.07;;;;;;;;;;5090210;28;20426;-80
2021/07/20 15:37:48;;;;;;;11.93;4.00;;;;;;;;;;5090251;28;20423;-80
2021/07/20 15:40:16;;;;;;;8.77;3.65;;;;;;;;;;5090303;28;20078;-80
2021/07/20 15:42:44;;;;;;;8.70;3.83;;;;;;;;;;5090743;28;20028;-79
2021/07/20 15:45:09;;;;;;;6.50;3.75;;;;;;;;;;5089921;28;20403;-80
2021/07/20 15:47:51;;;;;;;6.25;4.15;;;;;;;;;;5089493;28;20020;-80
2021/07/20 15:50:18;;;;;;;7.88;4.10;;;;;;;;;;5090516;28;20028;-80
2021/07/20 15:52:44;;;;;;;7.95;3.78;;;;;;;;;;5090158;28;20111;-79
2021/07/20 15:55:11;;;;;;;7.07;4.13;;;;;;;;;;5089430;28;20388;-79
2021/07/20 15:57:37;;;;;;;6.63;3.90;;;;;;;;;;5089867;28;20455;-80
2021/07/20 16:00:04;;;;;;;10.75;3.55;;;;;;;;;;5088577;28;20098;-80
2021/07/20 16:02:29;;;;;;;8.32;3.53;;;;;;;;;;5089556;28;20063;-80
2021/07/20 16:04:59;;;;;;;9.93;3.45;;;;;;;;;;5088941;28;20414;-80
2021/07/20 16:07:29;;;;;;;8.07;3.92;;;;;;;;;;5089270;28;20480;-80
2021/07/20 16:09:54;;;;;;;6.35;3.97;;;;;;;;;;5088181;28;20411;-80
2021/07/20 16:12:20;;;;;;;8.52;3.88;;;;;;;;;;5088367;28;20036;-80
2021/07/20 16:14:45;;;;;;;5.65;3.45;;;;;;;;;;5086354;28;20107;-79
2021/07/20 16:17:14;;;;;;;10.57;4.72;;;;;;;;;;5087439;28;20200;-79
2021/07/20 16:19:39;;;;;;;7.65;3.63;;;;;;;;;;5089309;28;20059;-80
2021/07/20 16:22:05;;;;;;;9.95;4.18;;;;;;;;;;5089434;28;20024;-80
2021/07/20 16:24:30;;;;;;;5.50;3.58;;;;;;;;;;5082931;28;20430;-80
2021/07/20 16:26:55;;;;;;;4.50;3.25;;;;;;;;;;5089677;28;20021;-79
2021/07/20 16:29:21;;;;;;;6.60;3.45;;;;;;;;;;5089715;28;20020;-79
2021/07/20 16:31:46;;;;;;;7.93;3.75;;;;;;;;;;5089534;28;20035;-80
2021/07/20 16:34:12;;;;;;;8.27;3.70;;;;;;;;;;5089407;28;20028;-80
2021/07/20 16:36:37;;;;;;;6.75;3.35;;;;;;;;;;5090327;28;20060;-79
2021/07/20 16:39:03;;;;;;;7.93;3.85;;;;;;;;;;5089401;28;20170;-80
2021/07/20 16:41:28;;;;;;;5.35;3.88;;;;;;;;;;5089819;28;20043;-79
2021/07/20 16:43:55;;;;;;;6.28;3.58;;;;;;;;;;5093734;28;20505;-79
2021/07/20 16:46:24;;;;;;;4.43;3.40;;;;;;;;;;5093481;28;20036;-79
2021/07/20 16:48:51;;;;;;;9.25;3.95;;;;;;;;;;5093932;28;20057;-79
2021/07/20 16:51:18;;;;;;;6.82;3.42;;;;;;;;;;5093746;28;20016;-79
2021/07/20 16:53:53;;;;;;;7.05;3.75;;;;;;;;;;5092094;28;20031;-79
2021/07/20 16:56:21;;;;;;;8.50;3.78;;;;;;;;;;5092830;28;20032;-79
2021/07/20 16:58:50;;;;;;;13.55;3.85;;;;;;;;;;5093540;28;20360;-79
2021/07/20 17:01:17;;;;;;;7.00;3.78;;;;;;;;;;5093050;28;20028;-80
2021/07/20 17:03:44;;;;;;;7.50;3.83;;;;;;;;;;5093575;28;20382;-80
2021/07/20 17:06:10;;;;;;;5.88;3.78;;;;;;;;;;5092818;28;20036;-81
2021/07/20 17:08:36;;;;;;;9.48;4.03;;;;;;;;;;5099676;28;20019;-79
2021/07/20 17:11:02;;;;;;;6.78;3.60;;;;;;;;;;5113029;28;20050;-79
2021/07/20 17:13:29;;;;;;;7.28;4.03;;;;;;;;;;5104942;27;20039;-79
2021/07/20 17:15:54;;;;;;;9.35;4.13;;;;;;;;;;5098817;28;20387;-79
2021/07/20 17:18:20;;;;;;;8.57;4.28;;;;;;;;;;5096732;28;20028;-79
2021/07/20 17:20:55;;;;;;;7.40;4.07;;;;;;;;;;5095608;28;20189;-79
2021/07/20 17:23:21;;;;;;;7.10;4.28;;;;;;;;;;5096326;28;20107;-79
2021/07/20 17:25:46;;;;;;;9.35;3.90;;;;;;;;;;5096104;28;20067;-79
2021/07/20 17:28:13;;;;;;;8.77;4.43;;;;;;;;;;5096264;28;20024;-79
2021/07/20 17:30:39;;;;;;;8.25;3.78;;;;;;;;;;5096074;28;20024;-79
2021/07/20 17:33:19;;;;;;;7.10;3.97;;;;;;;;;;5096185;28;20043;-79
2021/07/20 17:35:45;;;;;;;7.72;3.60;;;;;;;;;;5095730;28;20040;-79
2021/07/20 17:38:10;;;;;;;10.38;4.50;;;;;;;;;;5095655;28;20039;-79
2021/07/20 17:40:35;;;;;;;9.60;4.45;;;;;;;;;;5095635;28;20039;-79
2021/07/20 17:43:01;;;;;;;15.20;4.57;;;;;;;;;;5095968;28;20031;-79
2021/07/20 17:45:27;;;;;;;10.02;4.47;;;;;;;;;;5095454;28;20032;-80
2021/07/20 17:47:55;;;;;;;7.97;4.05;;;;;;;;;;5095460;28;20450;-79
2021/07/20 17:50:21;;;;;;;7.50;3.60;;;;;;;;;;5095517;28;20042;-79
2021/07/20 17:52:47;;;;;;;9.82;4.07;;;;;;;;;;5095187;28;20108;-79
2021/07/20 17:55:17;;;;;;;6.82;4.25;;;;;;;;;;5095372;28;20089;-79
2021/07/20 17:57:43;;;;;;;9.30;4.38;;;;;;;;;;5094889;28;20028;-79
2021/07/20 18:00:19;;;;;;;9.80;4.32;;;;;;;;;;5095272;28;20383;-79
2021/07/20 18:02:44;;;;;;;11.77;4.40;;;;;;;;;;5094810;28;20036;-79
2021/07/20 18:05:14;;;;;;;10.55;4.80;;;;;;;;;;5094782;28;20081;-79
2021/07/20 18:07:40;;;;;;;8.15;4.13;;;;;;;;;;5095119;28;20027;-79
2021/07/20 18:10:06;;;;;;;11.30;4.20;;;;;;;;;;5094828;28;20564;-78
2021/07/20 18:12:32;;;;;;;7.32;4.07;;;;;;;;;;5095512;28;20089;-79
2021/07/20 18:14:57;;;;;;;10.85;4.55;;;;;;;;;;5094867;28;20464;-78
2021/07/20 18:17:22;;;;;;;9.55;4.38;;;;;;;;;;5095294;28;20036;-79
2021/07/20 18:19:48;;;;;;;12.68;5.25;;;;;;;;;;5094771;28;20094;-78
2021/07/20 18:22:13;;;;;;;7.55;4.18;;;;;;;;;;5095322;28;20035;-78
2021/07/20 18:24:39;;;;;;;5.75;4.20;;;;;;;;;;5094966;28;20436;-79
2021/07/20 18:27:05;;;;;;;12.00;5.18;;;;;;;;;;5094974;28;20035;-78
2021/07/20 18:29:30;;;;;;;10.60;4.85;;;;;;;;;;5094939;28;20063;-78
2021/07/20 18:31:55;;;;;;;10.48;4.70;;;;;;;;;;5094964;28;20371;-79
2021/07/20 18:34:21;;;;;;;10.00;4.85;;;;;;;;;;5094986;28;20126;-79
2021/07/20 18:36:47;;;;;;;7.38;4.75;;;;;;;;;;5094954;28;20016;-79
2021/07/20 18:39:13;;;;;;;9.80;5.20;;;;;;;;;;5094933;28;20015;-79
2021/07/20 18:41:39;;;;;;;7.22;4.60;;;;;;;;;;5094454;28;20399;-78
2021/07/20 18:44:05;;;;;;;8.88;5.80;;;;;;;;;;5094726;28;20046;-78
2021/07/20 18:46:31;;;;;;;13.63;4.97;;;;;;;;;;5094951;28;20063;-79
2021/07/20 18:48:56;;;;;;;7.55;5.07;;;;;;;;;;5095016;28;20027;-80
2021/07/20 18:51:22;;;;;;;16.05;6.22;;;;;;;;;;5094558;28;20020;-78
2021/07/20 18:53:47;;;;;;;9.82;5.20;;;;;;;;;;5094901;28;20390;-79
2021/07/20 18:56:14;;;;;;;9.55;5.32;;;;;;;;;;5094577;28;20093;-78
2021/07/20 18:58:40;;;;;;;13.85;5.47;;;;;;;;;;5094585;28;20037;-79
2021/07/20 19:01:05;;;;;;;6.63;5.22;;;;;;;;;;5094350;28;20035;-79
2021/07/20 19:03:30;;;;;;;9.52;5.10;;;;;;;;;;5094326;28;20124;-78
2021/07/20 19:05:57;;;;;;;8.05;5.10;;;;;;;;;;5095625;28;20049;-80
2021/07/20 19:08:23;;;;;;;9.85;5.78;;;;;;;;;;5093683;28;20102;-79
2021/07/20 19:10:49;;;;;;;8.80;6.03;;;;;;;;;;5093659;28;20040;-80
2021/07/20 19:13:15;;;;;;;8.98;5.78;;;;;;;;;;5094095;28;20024;-79
2021/07/20 19:15:40;;;;;;;8.18;5.72;;;;;;;;;;5093627;28;20028;-79
2021/07/20 19:18:06;;;;;;;13.38;6.10;;;;;;;;;;5091889;28;20353;-79
2021/07/20 19:20:31;;;;;;;10.52;6.07;;;;;;;;;;5093040;28;20047;-79
2021/07/20 19:22:57;;;;;;;10.55;6.28;;;;;;;;;;5091656;28;20133;-80
2021/07/20 19:25:22;;;;;;;9.52;6.35;;;;;;;;;;5091350;28;20031;-81
2021/07/20 19:27:47;;;;;;;9.88;6.10;;;;;;;;;;5093418;28;20530;-79
2021/07/20 19:30:13;;;;;;;9.48;7.28;;;;;;;;;;5093407;28;20127;-79
2021/07/20 19:32:38;;;;;;;11.32;7.45;;;;;;;;;;5093912;28;20073;-79
2021/07/20 19:35:04;;;;;;;11.70;6.85;;;;;;;;;;5093659;28;20023;-79
2021/07/20 19:37:30;;;;;;;7.40;5.85;;;;;;;;;;5093753;28;20067;-79
2021/07/20 19:39:55;;;;;;;13.43;6.57;;;;;;;;;;5092330;28;20060;-79
2021/07/20 19:42:20;;;;;;;14.63;6.82;;;;;;;;;;5093658;28;20022;-78
2021/07/20 19:44:46;;;;;;;13.00;6.43;;;;;;;;;;5092863;28;20411;-79
2021/07/20 19:47:11;;;;;;;11.77;7.25;;;;;;;;;;5093059;28;20032;-79
2021/07/20 19:49:36;;;;;;;10.23;7.28;;;;;;;;;;5092883;28;20016;-79
2021/07/20 19:52:03;;;;;;;11.35;7.38;;;;;;;;;;5092797;28;20032;-79
2021/07/20 19:54:28;;;;;;;14.13;6.72;;;;;;;;;;5092224;28;20040;-79
2021/07/20 19:56:53;;;;;;;11.90;7.43;;;;;;;;;;5093280;28;20063;-79
2021/07/20 19:59:21;;;;;;;11.77;6.90;;;;;;;;;;5093509;28;20150;-79
2021/07/20 20:01:46;;;;;;;13.85;8.05;;;;;;;;;;5093079;28;20072;-80
2021/07/20 20:04:11;;;;;;;9.27;6.63;;;;;;;;;;5093400;28;20062;-79
2021/07/20 20:06:37;;;;;;;11.65;7.05;;;;;;;;;;5093327;28;20028;-79
2021/07/20 20:09:02;;;;;;;15.15;6.65;;;;;;;;;;5093127;28;20032;-80
2021/07/20 20:11:27;;;;;;;9.70;5.97;;;;;;;;;;5093492;28;20023;-79
2021/07/20 20:13:53;;;;;;;10.90;6.50;;;;;;;;;;5092915;28;20028;-80
2021/07/20 20:16:18;;;;;;;11.77;6.80;;;;;;;;;;5093249;28;20414;-80
2021/07/20 20:18:43;;;;;;;14.48;7.47;;;;;;;;;;5093605;28;20020;-78
2021/07/20 20:21:09;;;;;;;11.77;6.03;;;;;;;;;;5092998;28;20500;-78
2021/07/20 20:23:34;;;;;;;12.60;7.47;;;;;;;;;;5093562;28;20055;-78
2021/07/20 20:25:59;;;;;;;14.57;7.50;;;;;;;;;;5093552;28;20054;-78
2021/07/20 20:28:25;;;;;;;14.48;6.63;;;;;;;;;;5093352;28;20073;-78
2021/07/20 20:30:51;;;;;;;15.02;6.47;;;;;;;;;;5093619;28;20533;-78
2021/07/20 20:33:17;;;;;;;14.25;6.88;;;;;;;;;;5093515;28;20372;-78
2021/07/20 20:35:42;;;;;;;15.55;8.02;;;;;;;;;;5093193;28;20035;-78
2021/07/20 20:38:08;;;;;;;10.95;7.70;;;;;;;;;;5093342;28;20040;-79
2021/07/20 20:40:33;;;;;;;14.95;8.10;;;;;;;;;;5093326;28;20036;-78
2021/07/20 20:43:02;;;;;;;12.88;8.48;;;;;;;;;;5093685;28;20028;-79
2021/07/20 20:45:28;;;;;;;17.33;8.80;;;;;;;;;;5093087;28;20479;-78
2021/07/20 20:47:53;;;;;;;14.07;8.07;;;;;;;;;;5093386;28;20037;-78
2021/07/20 20:50:18;;;;;;;14.15;8.10;;;;;;;;;;5093360;28;20035;-78
2021/07/20 20:52:44;;;;;;;13.50;8.30;;;;;;;;;;5093330;28;20399;-78
2021/07/20 20:55:10;;;;;;;16.17;8.63;;;;;;;;;;5093264;28;20066;-79
2021/07/20 20:57:35;;;;;;;13.63;9.25;;;;;;;;;;5092967;28;20035;-79
2021/07/20 21:00:00;;;;;;;22.33;8.70;;;;;;;;;;5093218;28;20032;-78
2021/07/20 21:02:26;;;;;;;14.15;9.27;;;;;;;;;;5093497;28;20054;-79
2021/07/20 21:04:51;;;;;;;20.63;9.00;;;;;;;;;;5093166;28;20097;-78
2021/07/20 21:07:16;;;;;;;15.40;8.48;;;;;;;;;;5088360;28;20032;-79
2021/07/20 21:09:42;;;;;;;19.63;9.48;;;;;;;;;;5091762;28;20052;-78
2021/07/20 21:12:07;;;;;;;13.82;9.10;;;;;;;;;;5092683;28;20039;-79
2021/07/20 21:14:32;;;;;;;13.93;8.38;;;;;;;;;;5092969;28;20032;-79
2021/07/20 21:16:58;;;;;;;18.25;9.68;;;;;;;;;;5092400;28;20052;-79
2021/07/20 21:19:23;;;;;;;17.55;9.80;;;;;;;;;;5092840;28;20032;-79
2021/07/20 21:21:48;;;;;;;17.13;9.55;;;;;;;;;;5091457;28;20044;-79
2021/07/20 21:24:14;;;;;;;16.45;9.60;;;;;;;;;;5092544;28;20099;-79
2021/07/20 21:26:39;;;;;;;20.55;9.75;;;;;;;;;;5089110;28;20114;-78
2021/07/20 21:29:04;;;;;;;18.77;9.80;;;;;;;;;;5092646;28;20062;-79
2021/07/20 21:31:30;;;;;;;15.52;9.63;;;;;;;;;;5093915;28;20031;-78
2021/07/20 21:33:55;;;;;;;17.17;9.85;;;;;;;;;;5093427;28;20097;-78
2021/07/20 21:36:20;;;;;;;25.25;10.43;;;;;;;;;;5095046;28;20032;-78
2021/07/20 21:38:46;;;;;;;18.48;9.93;;;;;;;;;;5096222;28;20023;-79
2021/07/20 21:41:11;;;;;;;24.20;11.27;;;;;;;;;;5095836;28;20706;-79
2021/07/20 21:43:36;;;;;;;22.45;10.75;;;;;;;;;;5096041;28;20380;-78
2021/07/20 21:46:01;;;;;;;17.45;10.82;;;;;;;;;;5096078;28;20457;-78
2021/07/20 21:48:27;;;;;;;22.17;11.90;;;;;;;;;;5096134;28;20034;-78
2021/07/20 21:50:53;;;;;;;21.90;11.65;;;;;;;;;;5095969;28;20032;-79
2021/07/20 21:53:19;;;;;;;17.58;10.73;;;;;;;;;;5096113;28;20026;-78
2021/07/20 21:55:44;;;;;;;22.40;10.15;;;;;;;;;;5096279;28;20032;-78
2021/07/20 21:58:09;;;;;;;21.92;11.15;;;;;;;;;;5096060;28;20084;-79
2021/07/20 22:00:35;;;;;;;15.82;10.00;;;;;;;;;;5095843;28;20133;-78
2021/07/20 22:03:00;;;;;;;26.25;10.98;;;;;;;;;;5095998;28;20028;-79
2021/07/20 22:05:26;;;;;;;21.52;9.77;;;;;;;;;;5096219;28;20468;-78
2021/07/20 22:07:52;;;;;;;20.20;10.38;;;;;;;;;;5095865;28;20036;-78
2021/07/20 22:10:20;;;;;;;31.35;11.38;;;;;;;;;;5095568;28;20425;-78
2021/07/20 22:12:46;;;;;;;23.40;11.18;;;;;;;;;;5095667;28;20419;-79
2021/07/20 22:15:12;;;;;;;22.88;11.40;;;;;;;;;;5095261;28;20016;-79
2021/07/20 22:17:38;;;;;;;26.02;10.82;;;;;;;;;;5095503;28;20051;-78
2021/07/20 22:20:05;;;;;;;19.45;10.15;;;;;;;;;;5095643;28;20079;-78
2021/07/20 22:22:30;;;;;;;20.90;10.07;;;;;;;;;;5095546;28;20032;-78
2021/07/20 22:24:55;;;;;;;20.25;10.48;;;;;;;;;;5095495;28;20031;-79
2021/07/20 22:27:21;;;;;;;21.98;11.18;;;;;;;;;;5095167;28;20403;-78
2021/07/20 22:29:46;;;;;;;23.73;11.25;;;;;;;;;;5095106;28;20024;-78
2021/07/20 22:32:15;;;;;;;26.00;11.65;;;;;;;;;;5095211;28;20028;-79
2021/07/20 22:34:41;;;;;;;24.80;11.52;;;;;;;;;;5095393;28;20062;-79
2021/07/20 22:37:06;;;;;;;25.92;10.25;;;;;;;;;;5095292;28;20020;-78
2021/07/20 22:39:32;;;;;;;26.35;11.02;;;;;;;;;;5094856;28;20463;-78
2021/07/20 22:41:57;;;;;;;22.02;10.73;;;;;;;;;;5095227;28;20433;-78
2021/07/20 22:44:22;;;;;;;23.17;11.35;;;;;;;;;;5095021;28;20016;-78
2021/07/20 22:46:47;;;;;;;27.98;11.10;;;;;;;;;;5094769;28;20035;-79
2021/07/20 22:49:14;;;;;;;21.42;9.43;;;;;;;;;;5095211;28;20123;-78
2021/07/20 22:51:39;;;;;;;21.20;9.85;;;;;;;;;;5094845;28;20024;-79
2021/07/20 22:54:04;;;;;;;18.52;9.30;;;;;;;;;;5094793;28;20070;-78
2021/07/20 22:56:30;;;;;;;19.38;10.30;;;;;;;;;;5095021;28;20501;-78
2021/07/20 22:58:55;;;;;;;19.17;9.90;;;;;;;;;;5094489;28;20023;-79
2021/07/20 23:01:20;;;;;;;24.98;11.90;;;;;;;;;;5094029;28;20115;-79